createdAt,value
2023-04-15T00:01:03.759Z,88.74
2023-04-15T00:03:35.740Z,88.92
2023-04-15T00:06:06.085Z,88.94
2023-04-15T00:08:39.784Z,89.09
2023-04-15T00:11:09.955Z,89.09
2023-04-15T00:13:41.017Z,89.21
2023-04-15T00:16:11.934Z,88.82
2023-04-15T00:18:42.442Z,88.72
2023-04-15T00:21:12.658Z,89.12
2023-04-15T00:23:45.593Z,88.25
2023-04-15T00:26:16.621Z,89.06
2023-04-15T00:28:47.981Z,88.70
2023-04-15T00:31:18.357Z,88.85
2023-04-15T00:33:50.045Z,88.16
2023-04-15T00:36:20.723Z,88.55
2023-04-15T00:38:51.210Z,88.88
2023-04-15T00:41:22.339Z,87.93
2023-04-15T00:43:52.544Z,88.03
2023-04-15T00:46:24.275Z,88.08
2023-04-15T00:48:55.428Z,88.16
2023-04-15T00:51:26.059Z,87.96
2023-04-15T00:53:56.133Z,88.48
2023-04-15T00:56:26.337Z,88.14
2023-04-15T00:58:56.956Z,87.57
2023-04-15T01:01:27.818Z,88.03
2023-04-15T01:04:01.853Z,88.13
2023-04-15T01:06:33.570Z,88.00
2023-04-15T01:09:04.314Z,88.41
2023-04-15T01:11:37.866Z,88.92
2023-04-15T01:14:08.597Z,88.73
2023-04-15T01:16:41.098Z,88.59
2023-04-15T01:19:13.302Z,88.77
2023-04-15T01:21:43.677Z,88.74
2023-04-15T01:24:15.181Z,88.59
2023-04-15T01:26:45.501Z,89.05
2023-04-15T01:29:16.697Z,88.40
2023-04-15T01:31:57.213Z,88.58
2023-04-15T01:34:29.351Z,89.10
2023-04-15T01:36:59.409Z,89.25
2023-04-15T01:39:29.827Z,89.07
2023-04-15T01:41:59.931Z,89.07
2023-04-15T01:44:30.144Z,89.17
2023-04-15T01:47:00.498Z,89.39
2023-04-15T01:49:31.196Z,89.40
2023-04-15T01:52:03.360Z,89.93
2023-04-15T01:54:33.491Z,89.42
2023-04-15T01:57:03.596Z,89.52
2023-04-15T01:59:33.671Z,89.51
2023-04-15T02:02:03.617Z,89.68
2023-04-15T02:04:35.525Z,89.77
2023-04-15T02:07:05.515Z,89.28
2023-04-15T02:09:35.584Z,89.79
2023-04-15T02:12:05.811Z,89.84
2023-04-15T02:14:35.776Z,90.13
2023-04-15T02:17:09.430Z,89.20
2023-04-15T02:19:40.578Z,89.73
2023-04-15T02:22:12.525Z,90.34
2023-04-15T02:24:42.971Z,89.93
2023-04-15T02:27:13.200Z,90.31
2023-04-15T02:29:43.399Z,90.86
2023-04-15T02:32:16.790Z,90.42
2023-04-15T02:34:47.253Z,90.12
2023-04-15T02:37:18.343Z,90.18
2023-04-15T02:39:48.948Z,89.91
2023-04-15T02:42:19.335Z,89.74
2023-04-15T02:44:50.113Z,89.79
2023-04-15T02:47:21.306Z,89.85
2023-04-15T02:49:51.247Z,89.84
2023-04-15T02:52:21.647Z,90.19
2023-04-15T02:54:51.889Z,90.32
2023-04-15T02:57:42.224Z,90.44
2023-04-15T03:00:14.050Z,90.27
2023-04-15T03:02:47.950Z,90.51
2023-04-15T03:05:18.138Z,90.67
2023-04-15T03:07:53.888Z,90.20
2023-04-15T03:10:24.238Z,90.78
2023-04-15T03:12:54.399Z,91.42
2023-04-15T03:15:26.294Z,90.93
2023-04-15T03:17:57.946Z,90.80
2023-04-15T03:20:28.787Z,90.99
2023-04-15T03:22:58.963Z,91.35
2023-04-15T03:25:29.415Z,91.64
2023-04-15T03:27:59.610Z,91.66
2023-04-15T03:30:29.946Z,91.78
2023-04-15T03:33:00.242Z,91.28
2023-04-15T03:35:31.000Z,91.47
2023-04-15T03:38:01.143Z,90.82
2023-04-15T03:40:31.158Z,90.77
2023-04-15T03:43:01.639Z,90.93
2023-04-15T03:45:32.639Z,91.63
2023-04-15T03:50:34.835Z,91.32
2023-04-15T03:53:04.712Z,90.60
2023-04-15T03:55:34.599Z,90.77
2023-04-15T03:58:04.475Z,90.94
2023-04-15T04:00:34.422Z,91.14
2023-04-15T04:03:05.206Z,91.02
2023-04-15T04:05:38.492Z,91.18
2023-04-15T04:08:08.886Z,91.17
2023-04-15T04:10:38.453Z,90.96
2023-04-15T04:13:08.252Z,91.61
2023-04-15T04:15:38.365Z,92.09
2023-04-15T04:18:08.494Z,91.66
2023-04-15T04:20:38.703Z,91.73
2023-04-15T04:23:09.432Z,92.40
2023-04-15T04:25:39.760Z,92.14
2023-04-15T04:28:09.833Z,92.18
2023-04-15T04:30:40.046Z,92.22
2023-04-15T04:33:10.092Z,92.21
2023-04-15T04:35:39.799Z,91.90
2023-04-15T04:38:09.832Z,92.39
2023-04-15T04:40:39.819Z,92.65
2023-04-15T04:43:10.547Z,92.72
2023-04-15T04:45:40.728Z,92.75
2023-04-15T04:48:11.694Z,93.06
2023-04-15T04:50:41.903Z,93.11
2023-04-15T04:53:12.033Z,93.15
2023-04-15T04:55:42.515Z,93.24
2023-04-15T04:58:12.876Z,93.29
2023-04-15T05:00:43.330Z,92.92
2023-04-15T05:03:13.534Z,93.40
2023-04-15T05:05:43.362Z,92.95
2023-04-15T05:08:13.169Z,93.48
2023-04-15T05:10:43.315Z,92.86
2023-04-15T05:13:13.463Z,93.50
2023-04-15T05:15:44.501Z,93.52
2023-04-15T05:18:15.284Z,93.40
2023-04-15T05:20:45.817Z,93.39
2023-04-15T05:23:18.724Z,93.06
2023-04-15T05:25:49.154Z,93.26
2023-04-15T05:28:19.305Z,92.81
2023-04-15T05:30:49.475Z,93.16
2023-04-15T05:33:20.319Z,93.31
2023-04-15T05:35:50.511Z,93.24
2023-04-15T05:38:20.691Z,93.41
2023-04-15T05:40:50.830Z,93.36
2023-04-15T05:43:20.716Z,93.72
2023-04-15T05:45:50.800Z,93.66
2023-04-15T05:48:20.589Z,93.38
2023-04-15T05:50:50.594Z,93.33
2023-04-15T05:53:20.477Z,93.30
2023-04-15T05:55:50.531Z,93.66
2023-04-15T05:58:20.378Z,93.58
2023-04-15T06:00:50.527Z,93.59
2023-04-15T06:03:20.412Z,93.46
2023-04-15T06:05:50.609Z,93.61
2023-04-15T06:08:20.687Z,93.66
2023-04-15T06:10:50.654Z,94.20
2023-04-15T06:13:20.568Z,94.02
2023-04-15T06:15:50.784Z,93.98
2023-04-15T06:18:21.465Z,94.20
2023-04-15T06:20:51.704Z,93.85
2023-04-15T06:23:22.172Z,93.68
2023-04-15T06:25:53.131Z,93.76
2023-04-15T06:28:23.216Z,93.96
2023-04-15T06:30:54.441Z,94.45
2023-04-15T06:33:24.589Z,94.27
2023-04-15T06:35:54.909Z,94.54
2023-04-15T06:38:25.020Z,94.25
2023-04-15T06:40:55.061Z,94.33
2023-04-15T06:43:25.496Z,94.29
2023-04-15T06:45:55.698Z,94.37
2023-04-15T06:48:26.434Z,94.56
2023-04-15T06:50:57.406Z,94.70
2023-04-15T06:53:29.195Z,94.89
2023-04-15T06:55:59.374Z,94.97
2023-04-15T06:58:29.493Z,94.82
2023-04-15T07:00:59.592Z,95.10
2023-04-15T07:03:31.450Z,95.33
2023-04-15T07:06:07.497Z,95.08
2023-04-15T07:08:37.958Z,95.28
2023-04-15T07:11:08.648Z,95.35
2023-04-15T07:13:38.764Z,95.72
2023-04-15T07:16:08.741Z,95.81
2023-04-15T07:18:38.941Z,95.79
2023-04-15T07:21:09.683Z,95.88
2023-04-15T07:23:39.724Z,96.20
2023-04-15T07:26:10.940Z,96.47
2023-04-15T07:28:41.299Z,96.19
2023-04-15T07:31:11.793Z,96.20
2023-04-15T07:33:41.986Z,96.24
2023-04-15T07:36:12.163Z,96.24
2023-04-15T07:38:42.068Z,96.46
2023-04-15T07:41:12.183Z,96.48
2023-04-15T07:43:42.099Z,96.53
2023-04-15T07:46:12.295Z,96.70
2023-04-15T07:48:42.875Z,96.80
2023-04-15T07:51:14.094Z,97.04
2023-04-15T07:53:44.300Z,97.47
2023-04-15T07:56:14.421Z,97.18
2023-04-15T07:58:45.072Z,97.45
2023-04-15T08:01:15.415Z,97.27
2023-04-15T08:03:45.840Z,97.13
2023-04-15T08:06:16.210Z,97.24
2023-04-15T08:08:46.437Z,97.34
2023-04-15T08:11:16.765Z,97.14
2023-04-15T08:13:46.932Z,96.91
2023-04-15T08:16:24.693Z,96.90
2023-04-15T08:18:57.329Z,96.92
2023-04-15T08:21:28.792Z,97.17
2023-04-15T08:23:59.229Z,97.17
2023-04-15T08:26:29.442Z,96.71
2023-04-15T08:29:00.355Z,96.82
2023-04-15T08:31:31.834Z,96.34
2023-04-15T08:34:02.381Z,96.34
2023-04-15T08:36:33.637Z,96.20
2023-04-15T08:39:05.920Z,96.56
2023-04-15T08:42:08.869Z,96.51
2023-04-15T08:44:39.482Z,96.61
2023-04-15T08:47:10.678Z,97.06
2023-04-15T08:49:43.227Z,96.35
2023-04-15T08:52:13.984Z,96.13
2023-04-15T08:54:44.309Z,96.87
2023-04-15T08:57:14.071Z,95.98
2023-04-15T08:59:45.813Z,96.60
2023-04-15T09:02:17.166Z,96.74
2023-04-15T09:04:47.416Z,96.61
2023-04-15T09:07:17.925Z,96.58
2023-04-15T09:09:48.681Z,96.75
2023-04-15T09:12:18.869Z,97.06
2023-04-15T09:14:49.539Z,97.02
2023-04-15T09:17:22.974Z,96.99
2023-04-15T09:20:10.318Z,97.41
2023-04-15T09:22:41.889Z,97.50
2023-04-15T09:25:24.370Z,97.45
2023-04-15T09:27:56.972Z,97.59
2023-04-15T09:30:28.060Z,97.30
2023-04-15T09:33:00.346Z,96.67
2023-04-15T09:35:30.557Z,96.68
2023-04-15T09:38:08.705Z,96.27
2023-04-15T09:40:43.381Z,96.65
2023-04-15T09:43:17.961Z,96.49
2023-04-15T09:45:53.642Z,97.47
2023-04-15T09:48:29.333Z,98.21
2023-04-15T09:51:03.964Z,98.42
2023-04-15T09:53:37.593Z,97.68
2023-04-15T09:56:10.008Z,97.46
2023-04-15T09:58:40.426Z,97.16
2023-04-15T10:01:11.104Z,96.83
2023-04-15T10:03:43.526Z,97.92
2023-04-15T10:06:14.506Z,97.74
2023-04-15T10:08:44.730Z,97.96
2023-04-15T10:11:15.492Z,98.22
2023-04-15T10:13:46.636Z,98.60
2023-04-15T10:16:18.700Z,97.92
2023-04-15T10:18:56.150Z,97.85
2023-04-15T10:21:26.632Z,97.59
2023-04-15T10:23:57.073Z,97.30
2023-04-15T10:26:28.241Z,96.90
2023-04-15T10:29:00.062Z,97.31
2023-04-15T10:31:31.419Z,96.87
2023-04-15T10:34:07.621Z,96.94
2023-04-15T10:36:37.989Z,96.13
2023-04-15T10:39:28.155Z,95.83
2023-04-15T10:42:11.122Z,95.81
2023-04-15T10:44:53.862Z,95.85
2023-04-15T10:47:23.831Z,95.59
2023-04-15T10:50:01.634Z,95.81
2023-04-15T10:52:31.772Z,95.61
2023-04-15T10:55:19.467Z,95.51
2023-04-15T10:57:57.375Z,94.94
2023-04-15T11:00:29.747Z,94.75
2023-04-15T11:03:06.925Z,94.92
2023-04-15T11:05:55.424Z,94.52
2023-04-15T11:08:55.744Z,93.78
2023-04-15T11:11:46.446Z,93.95
2023-04-15T11:14:19.750Z,94.11
2023-04-15T11:16:49.932Z,94.18
2023-04-15T11:19:20.077Z,93.79
2023-04-15T11:21:51.154Z,93.64
2023-04-15T11:24:53.181Z,92.62
2023-04-15T11:27:24.678Z,92.70
2023-04-15T11:29:54.823Z,92.82
2023-04-15T11:32:24.755Z,92.70
2023-04-15T11:34:55.135Z,92.76
2023-04-15T11:37:31.573Z,92.26
2023-04-15T11:40:04.020Z,93.11
2023-04-15T11:42:48.651Z,92.21
2023-04-15T11:45:20.049Z,92.21
2023-04-15T11:47:50.145Z,91.33
2023-04-15T11:50:25.280Z,93.13
2023-04-15T11:52:59.821Z,91.94
2023-04-15T11:55:30.615Z,92.53
2023-04-15T11:58:16.219Z,92.12
2023-04-15T12:01:00.448Z,91.72
2023-04-15T12:03:44.603Z,91.18
2023-04-15T12:06:23.761Z,91.06
2023-04-15T12:09:16.792Z,91.31
2023-04-15T12:11:52.468Z,90.33
2023-04-15T12:14:27.910Z,90.41
2023-04-15T12:17:05.977Z,90.63
2023-04-15T12:19:43.062Z,90.08
2023-04-15T12:22:16.792Z,89.40
2023-04-15T12:24:50.714Z,88.53
2023-04-15T12:27:20.861Z,89.50
2023-04-15T12:29:50.940Z,90.16
2023-04-15T12:32:22.271Z,89.70
2023-04-15T12:34:54.618Z,89.34
2023-04-15T12:37:25.074Z,88.94
2023-04-15T12:39:57.987Z,88.72
2023-04-15T12:42:28.585Z,88.22
2023-04-15T12:44:58.694Z,88.25
2023-04-15T12:47:28.593Z,88.23
2023-04-15T12:50:00.396Z,89.37
2023-04-15T12:52:30.519Z,89.36
2023-04-15T12:55:01.545Z,88.96
2023-04-15T12:57:31.842Z,88.49
2023-04-15T13:00:01.477Z,87.82
2023-04-15T13:02:31.579Z,87.71
2023-04-15T13:05:01.949Z,88.09
2023-04-15T13:07:31.550Z,87.89
2023-04-15T13:10:01.574Z,87.92
2023-04-15T13:12:32.477Z,88.09
2023-04-15T13:15:04.338Z,87.48
2023-04-15T13:17:35.621Z,85.49
2023-04-15T13:20:05.723Z,86.91
2023-04-15T13:22:35.595Z,86.62
2023-04-15T13:25:05.497Z,85.69
2023-04-15T13:27:35.381Z,85.60
2023-04-15T13:30:06.419Z,85.42
2023-04-15T13:32:36.896Z,85.25
2023-04-15T13:35:07.379Z,84.99
2023-04-15T13:37:37.986Z,84.06
2023-04-15T13:40:08.953Z,84.63
2023-04-15T13:42:39.063Z,85.34
2023-04-15T13:45:09.802Z,85.64
2023-04-15T13:47:40.038Z,83.85
2023-04-15T13:50:11.338Z,84.08
2023-04-15T13:52:41.961Z,84.01
2023-04-15T13:55:19.457Z,83.40
2023-04-15T13:57:51.867Z,83.47
2023-04-15T14:00:21.962Z,82.65
2023-04-15T14:02:52.307Z,82.57
2023-04-15T14:05:22.739Z,82.77
2023-04-15T14:07:52.365Z,81.75
2023-04-15T14:10:22.169Z,80.55
2023-04-15T14:12:51.925Z,80.92
2023-04-15T14:15:22.692Z,81.17
2023-04-15T14:17:52.833Z,80.02
2023-04-15T14:20:23.840Z,80.60
2023-04-15T14:22:53.732Z,79.36
2023-04-15T14:25:32.851Z,80.82
2023-04-15T14:28:04.941Z,81.15
2023-04-15T14:30:35.352Z,79.73
2023-04-15T14:33:05.564Z,80.31
2023-04-15T14:35:36.028Z,79.59
2023-04-15T14:38:07.319Z,78.49
2023-04-15T14:40:37.970Z,78.79
2023-04-15T14:43:08.082Z,79.48
2023-04-15T14:45:42.229Z,78.55
2023-04-15T14:48:14.780Z,79.32
2023-04-15T14:50:45.049Z,79.27
2023-04-15T14:53:15.210Z,77.75
2023-04-15T14:55:45.354Z,78.17
2023-04-15T14:58:15.361Z,76.70
2023-04-15T15:00:45.742Z,78.72
2023-04-15T15:03:16.496Z,75.36
2023-04-15T15:05:48.755Z,76.23
2023-04-15T15:08:19.014Z,76.10
2023-04-15T15:10:49.925Z,77.34
2023-04-15T15:13:20.623Z,77.22
2023-04-15T15:15:50.950Z,76.52
2023-04-15T15:18:21.195Z,77.05
2023-04-15T15:20:51.508Z,76.77
2023-04-15T15:23:21.790Z,76.64
2023-04-15T15:25:52.212Z,76.01
2023-04-15T15:28:23.116Z,75.68
2023-04-15T15:31:00.080Z,75.54
2023-04-15T15:33:30.475Z,75.30
2023-04-15T15:36:00.937Z,75.82
2023-04-15T15:38:31.011Z,74.51
2023-04-15T15:41:01.041Z,75.09
2023-04-15T15:43:30.990Z,74.44
2023-04-15T15:46:00.738Z,75.43
2023-04-15T15:48:30.522Z,74.90
2023-04-15T15:51:00.183Z,76.48
2023-04-15T15:53:29.961Z,75.04
2023-04-15T15:55:59.672Z,75.92
2023-04-15T15:58:29.412Z,76.20
2023-04-15T16:01:01.475Z,76.98
2023-04-15T16:03:32.168Z,76.55
2023-04-15T16:06:02.475Z,76.63
2023-04-15T16:08:32.650Z,76.89
2023-04-15T16:11:02.808Z,76.96
2023-04-15T16:13:32.699Z,77.98
2023-04-15T16:16:02.634Z,77.22
2023-04-15T16:18:34.573Z,76.56
2023-04-15T16:21:05.559Z,77.58
2023-04-15T16:23:35.082Z,76.79
2023-04-15T16:26:05.184Z,76.96
2023-04-15T16:28:35.306Z,76.12
2023-04-15T16:31:05.008Z,77.60
2023-04-15T16:33:35.151Z,77.98
2023-04-15T16:36:06.307Z,77.91
2023-04-15T16:38:36.447Z,77.75
2023-04-15T16:41:06.116Z,77.38
2023-04-15T16:43:36.231Z,77.33
2023-04-15T16:46:06.446Z,77.60
2023-04-15T16:48:37.997Z,79.91
2023-04-15T16:51:08.303Z,77.81
2023-04-15T16:53:38.575Z,79.99
2023-04-15T16:56:09.087Z,78.10
2023-04-15T16:58:39.320Z,79.14
2023-04-15T17:01:08.878Z,79.63
2023-04-15T17:03:40.079Z,78.96
2023-04-15T17:06:10.224Z,78.82
2023-04-15T17:08:40.094Z,79.25
2023-04-15T17:11:10.180Z,80.61
2023-04-15T17:13:42.310Z,81.00
2023-04-15T17:16:13.688Z,80.35
2023-04-15T17:18:43.869Z,79.28
2023-04-15T17:21:13.456Z,80.68
2023-04-15T17:23:43.363Z,80.50
2023-04-15T17:26:13.477Z,80.26
2023-04-15T17:28:44.325Z,79.06
2023-04-15T17:31:14.449Z,79.81
2023-04-15T17:34:02.069Z,78.87
2023-04-15T17:36:36.720Z,79.94
2023-04-15T17:39:07.026Z,79.88
2023-04-15T17:41:37.350Z,80.87
2023-04-15T17:44:07.926Z,80.33
2023-04-15T17:46:38.103Z,81.36
2023-04-15T17:49:07.829Z,81.58
2023-04-15T17:51:37.644Z,81.72
2023-04-15T17:54:10.172Z,80.27
2023-04-15T17:56:39.810Z,80.58
2023-04-15T17:59:10.006Z,81.00
2023-04-15T18:01:40.381Z,79.98
2023-04-15T18:04:11.204Z,79.67
2023-04-15T18:06:42.117Z,79.59
2023-04-15T18:09:12.510Z,80.88
2023-04-15T18:11:45.273Z,82.25
2023-04-15T18:14:26.628Z,81.72
2023-04-15T18:17:04.314Z,81.97
2023-04-15T18:19:34.514Z,82.94
2023-04-15T18:22:05.250Z,82.57
2023-04-15T18:24:35.663Z,83.33
2023-04-15T18:27:05.843Z,84.04
2023-04-15T18:29:36.036Z,83.98
2023-04-15T18:32:06.292Z,84.68
2023-04-15T18:34:36.842Z,85.89
2023-04-15T18:37:06.777Z,85.71
2023-04-15T18:39:36.509Z,86.14
2023-04-15T18:42:06.546Z,86.75
2023-04-15T18:44:36.675Z,88.13
2023-04-15T18:47:08.345Z,87.81
2023-04-15T18:49:38.510Z,88.66
2023-04-15T18:52:08.481Z,87.94
2023-04-15T18:54:38.540Z,87.52
2023-04-15T18:57:08.913Z,88.27
2023-04-15T18:59:39.840Z,88.59
2023-04-15T19:02:10.216Z,88.42
2023-04-15T19:04:40.351Z,87.97
2023-04-15T19:07:10.991Z,87.66
2023-04-15T19:09:42.202Z,87.44
2023-04-15T19:12:12.352Z,88.09
2023-04-15T19:14:42.660Z,87.03
2023-04-15T19:17:32.626Z,87.95
2023-04-15T19:20:03.102Z,88.04
2023-04-15T19:22:32.538Z,87.13
2023-04-15T19:25:02.354Z,87.52
2023-04-15T19:27:32.130Z,87.34
2023-04-15T19:30:03.109Z,87.95
2023-04-15T19:32:33.396Z,88.22
2023-04-15T19:35:03.078Z,87.64
2023-04-15T19:37:33.381Z,88.50
2023-04-15T19:40:03.531Z,89.01
2023-04-15T19:42:34.835Z,89.13
2023-04-15T19:45:05.253Z,89.58
2023-04-15T19:47:36.077Z,89.91
2023-04-15T19:50:08.792Z,89.81
2023-04-15T19:52:40.396Z,89.39
2023-04-15T19:55:11.182Z,89.73
2023-04-15T19:57:41.293Z,89.45
2023-04-15T20:00:12.139Z,89.03
2023-04-15T20:02:44.870Z,89.67
2023-04-15T20:05:15.782Z,89.86
2023-04-15T20:07:49.165Z,89.62
2023-04-15T20:10:22.209Z,90.21
2023-04-15T20:12:53.352Z,90.47
2023-04-15T20:15:24.743Z,90.10
2023-04-15T20:17:54.970Z,90.20
2023-04-15T20:20:26.824Z,90.57
2023-04-15T20:22:56.976Z,90.96
2023-04-15T20:25:27.472Z,90.52
2023-04-15T20:28:00.963Z,90.73
2023-04-15T20:30:34.099Z,90.99
2023-04-15T20:33:07.516Z,91.52
2023-04-15T20:35:38.216Z,91.18
2023-04-15T20:38:08.445Z,91.15
2023-04-15T20:40:40.560Z,91.26
2023-04-15T20:43:12.254Z,92.10
2023-04-15T20:45:42.601Z,91.85
2023-04-15T20:48:12.807Z,91.77
2023-04-15T20:50:43.154Z,91.28
2023-04-15T20:53:13.564Z,91.77
2023-04-15T20:55:48.013Z,92.10
2023-04-15T20:58:18.097Z,92.38
2023-04-15T21:00:48.319Z,93.24
2023-04-15T21:03:22.286Z,94.02
2023-04-15T21:05:52.683Z,94.21
2023-04-15T21:08:30.156Z,94.13
2023-04-15T21:11:00.436Z,94.47
2023-04-15T21:13:30.591Z,94.54
2023-04-15T21:16:01.862Z,94.96
2023-04-15T21:18:32.171Z,94.84
2023-04-15T21:21:03.070Z,93.88
2023-04-15T21:23:43.643Z,95.21
2023-04-15T21:26:13.774Z,95.24
2023-04-15T21:28:43.590Z,95.21
2023-04-15T21:31:13.470Z,95.38
2023-04-15T21:33:43.400Z,95.50
2023-04-15T21:36:13.607Z,95.64
2023-04-15T21:38:43.773Z,95.70
2023-04-15T21:41:13.987Z,95.49
2023-04-15T21:43:44.148Z,95.50
2023-04-15T21:46:21.985Z,95.46
2023-04-15T21:48:57.169Z,96.00
2023-04-15T21:51:28.232Z,95.96
2023-04-15T21:53:58.317Z,95.56
2023-04-15T21:56:28.905Z,95.64
2023-04-15T21:58:59.590Z,95.91
2023-04-15T22:01:29.779Z,95.65
2023-04-15T22:03:59.850Z,95.51
2023-04-15T22:06:30.262Z,95.55
2023-04-15T22:08:59.922Z,95.08
2023-04-15T22:11:31.568Z,96.26
2023-04-15T22:14:03.095Z,96.57
2023-04-15T22:16:34.459Z,96.39
2023-04-15T22:19:04.988Z,96.30
2023-04-15T22:21:36.260Z,96.03
2023-04-15T22:24:39.303Z,96.18
2023-04-15T22:27:00.389Z,96.06
2023-04-15T22:29:32.057Z,95.96
2023-04-15T22:32:02.452Z,96.00
2023-04-15T22:34:32.606Z,95.98
2023-04-15T22:37:02.891Z,95.85
2023-04-15T22:39:32.571Z,95.21
2023-04-15T22:42:03.227Z,95.59
2023-04-15T22:44:33.281Z,96.44
2023-04-15T22:47:03.411Z,96.46
2023-04-15T22:49:36.109Z,96.13
2023-04-15T22:52:09.056Z,96.06
2023-04-15T22:54:42.343Z,96.10
2023-04-15T22:57:12.486Z,96.09
2023-04-15T22:59:42.520Z,96.15
2023-04-15T23:02:13.295Z,96.24
2023-04-15T23:04:43.670Z,96.45
2023-04-15T23:07:13.315Z,95.84
2023-04-15T23:09:43.000Z,96.71
2023-04-15T23:12:15.358Z,96.90
2023-04-15T23:14:47.165Z,97.22
2023-04-15T23:17:17.251Z,97.64
2023-04-15T23:19:47.309Z,98.09
2023-04-15T23:22:17.608Z,97.95
2023-04-15T23:24:48.015Z,98.32
2023-04-15T23:27:20.066Z,98.66
2023-04-15T23:29:51.187Z,98.28
2023-04-15T23:32:22.684Z,98.17
2023-04-15T23:34:53.380Z,98.01
2023-04-15T23:37:23.552Z,98.34
2023-04-15T23:39:53.816Z,98.39
2023-04-15T23:42:25.294Z,97.99
2023-04-15T23:44:56.586Z,97.94
2023-04-15T23:47:29.803Z,97.91
2023-04-15T23:50:01.174Z,97.67
2023-04-15T23:52:31.683Z,97.20
2023-04-15T23:55:02.019Z,97.08
2023-04-15T23:57:32.228Z,97.02
